createdAt,value
2019-04-05T00:03:56.677Z,44.59
2019-04-05T00:08:58.350Z,44.54
2019-04-05T00:14:00.124Z,44.55
2019-04-05T00:19:03.740Z,44.54
2019-04-05T00:24:05.511Z,44.49
2019-04-05T00:29:07.185Z,44.46
2019-04-05T00:34:08.958Z,44.49
2019-04-05T00:39:11.855Z,44.53
2019-04-05T00:44:13.628Z,44.68
2019-04-05T00:49:15.302Z,44.86
2019-04-05T00:54:17.075Z,45.02
2019-04-05T00:59:18.747Z,45.14
2019-04-05T01:04:20.555Z,45.20
2019-04-05T01:09:22.187Z,45.28
2019-04-05T01:14:23.963Z,45.35
2019-04-05T01:19:30.854Z,45.38
2019-04-05T01:24:32.832Z,45.42
2019-04-05T01:29:34.398Z,45.47
2019-04-05T01:34:36.071Z,45.49
2019-04-05T01:39:37.849Z,45.53
2019-04-05T01:44:39.620Z,45.55
2019-04-05T01:49:41.391Z,45.56
2019-04-05T01:54:43.167Z,45.55
2019-04-05T01:59:44.939Z,45.56
2019-04-05T02:04:46.709Z,45.59
2019-04-05T02:09:48.485Z,45.61
2019-04-05T02:14:50.256Z,45.63
2019-04-05T02:19:51.826Z,45.66
2019-04-05T02:24:53.496Z,45.68
2019-04-05T02:29:55.187Z,45.70
2019-04-05T02:34:56.840Z,45.70
2019-04-05T02:39:58.510Z,45.72
2019-04-05T02:45:00.282Z,45.73
2019-04-05T02:50:02.160Z,45.75
2019-04-05T02:55:04.333Z,45.75
2019-04-05T03:00:05.994Z,45.73
2019-04-05T03:05:07.848Z,45.75
2019-04-05T03:10:31.978Z,45.75
2019-04-05T03:15:33.642Z,45.75
2019-04-05T03:20:35.220Z,45.81
2019-04-05T03:25:36.772Z,45.86
2019-04-05T03:30:38.461Z,45.91
2019-04-05T03:35:40.104Z,46.15
2019-04-05T03:40:42.403Z,46.26
2019-04-05T03:45:43.976Z,46.34
2019-04-05T03:50:45.739Z,46.31
2019-04-05T03:55:48.031Z,46.50
2019-04-05T04:00:49.723Z,46.52
2019-04-05T04:05:51.685Z,46.54
2019-04-05T04:10:53.209Z,47.26
2019-04-05T04:15:54.864Z,49.14
2019-04-05T04:21:00.665Z,49.53
2019-04-05T04:26:02.222Z,49.50
2019-04-05T04:31:03.751Z,49.47
2019-04-05T04:36:05.517Z,49.18
2019-04-05T04:41:07.165Z,49.35
2019-04-05T04:46:08.834Z,48.81
2019-04-05T04:51:10.393Z,49.14
2019-04-05T04:56:11.969Z,49.39
2019-04-05T05:01:13.643Z,49.50
2019-04-05T05:06:15.311Z,49.40
2019-04-05T05:11:16.870Z,48.24
2019-04-05T05:16:18.455Z,48.68
2019-04-05T05:21:20.119Z,48.80
2019-04-05T05:26:21.649Z,49.02
2019-04-05T05:31:23.276Z,49.30
2019-04-05T05:36:24.811Z,49.50
2019-04-05T05:41:26.336Z,49.55
2019-04-05T05:46:27.910Z,49.52
2019-04-05T05:51:29.949Z,49.56
2019-04-05T05:56:31.507Z,49.55
2019-04-05T06:01:33.076Z,49.52
2019-04-05T06:06:34.644Z,49.51
2019-04-05T06:11:36.200Z,49.42
2019-04-05T06:16:46.180Z,49.48
2019-04-05T06:21:41.348Z,49.44
2019-04-05T06:26:42.927Z,49.40
2019-04-05T06:31:44.450Z,49.44
2019-04-05T06:36:45.983Z,49.45
2019-04-05T06:41:47.541Z,49.45
2019-04-05T06:46:49.146Z,49.42
2019-04-05T06:51:50.708Z,49.40
2019-04-05T06:56:52.242Z,49.38
2019-04-05T07:01:53.771Z,49.36
2019-04-05T07:06:55.303Z,49.33
2019-04-05T07:11:56.833Z,49.28
2019-04-05T07:16:58.406Z,49.24
2019-04-05T07:21:59.942Z,49.23
2019-04-05T07:27:01.576Z,49.25
2019-04-05T07:32:04.441Z,49.24
2019-04-05T07:37:06.049Z,49.20
2019-04-05T07:42:07.618Z,49.21
2019-04-05T07:47:09.293Z,49.17
2019-04-05T07:52:12.986Z,49.17
2019-04-05T07:57:14.260Z,49.13
2019-04-05T08:02:15.890Z,49.10
2019-04-05T08:07:17.526Z,49.05
2019-04-05T08:12:19.178Z,49.04
2019-04-05T08:17:20.814Z,49.04
2019-04-05T08:22:22.506Z,49.07
2019-04-05T08:27:24.088Z,49.04
2019-04-05T08:32:25.645Z,49.01
2019-04-05T08:37:27.197Z,48.96
2019-04-05T08:42:28.759Z,48.96
2019-04-05T08:47:30.454Z,48.96
2019-04-05T08:52:32.023Z,48.75
2019-04-05T08:57:33.559Z,48.43
2019-04-05T09:02:35.190Z,48.45
2019-04-05T09:07:36.847Z,48.41
2019-04-05T09:12:38.373Z,48.02
2019-04-05T09:17:40.080Z,47.92
2019-04-05T09:22:41.617Z,48.10
2019-04-05T09:27:43.246Z,48.11
2019-04-05T09:32:44.976Z,48.09
2019-04-05T09:37:46.957Z,48.04
2019-04-05T09:42:48.708Z,47.88
2019-04-05T09:47:50.308Z,47.82
2019-04-05T09:52:51.989Z,47.75
2019-04-05T09:57:53.643Z,47.75
2019-04-05T10:02:55.221Z,47.67
2019-04-05T10:07:56.781Z,47.69
2019-04-05T10:12:58.446Z,47.63
2019-04-05T10:18:00.130Z,47.57
2019-04-05T10:23:02.965Z,47.56
2019-04-05T10:28:04.606Z,47.53
2019-04-05T10:33:06.359Z,47.52
2019-04-05T10:38:07.891Z,47.40
2019-04-05T10:43:09.531Z,47.36
2019-04-05T10:48:11.088Z,47.38
2019-04-05T10:53:12.615Z,47.37
2019-04-05T10:58:14.174Z,47.37
2019-04-05T11:03:15.780Z,47.33
2019-04-05T11:08:17.412Z,47.31
2019-04-05T11:13:18.976Z,47.28
2019-04-05T11:18:20.544Z,47.20
2019-04-05T11:23:22.158Z,47.15
2019-04-05T11:28:23.692Z,47.12
2019-04-05T11:33:25.234Z,47.14
2019-04-05T11:38:26.784Z,47.13
2019-04-05T11:43:31.115Z,47.03
2019-04-05T11:48:31.827Z,47.01
2019-04-05T11:53:33.385Z,47.15
2019-04-05T11:58:34.951Z,47.29
2019-04-05T12:03:36.673Z,47.01
2019-04-05T12:08:38.219Z,47.18
2019-04-05T12:13:39.865Z,47.20
2019-04-05T12:18:41.458Z,47.29
2019-04-05T12:23:42.991Z,47.38
2019-04-05T12:28:44.699Z,47.43
2019-04-05T12:33:47.003Z,47.36
2019-04-05T12:38:48.772Z,47.20
2019-04-05T12:43:51.050Z,47.31
2019-04-05T12:48:52.813Z,47.12
2019-04-05T12:53:56.403Z,47.02
2019-04-05T12:58:57.997Z,47.16
2019-04-05T13:03:59.560Z,47.19
2019-04-05T13:09:01.089Z,46.97
2019-04-05T13:14:04.649Z,47.08
2019-04-05T13:19:06.183Z,47.22
2019-04-05T13:24:10.030Z,47.32
2019-04-05T13:29:11.155Z,47.38
2019-04-05T13:34:12.764Z,47.20
2019-04-05T13:39:14.350Z,47.19
2019-04-05T13:44:16.005Z,47.30
2019-04-05T13:49:17.569Z,47.43
2019-04-05T13:54:19.245Z,47.51
2019-04-05T13:59:20.768Z,47.47
2019-04-05T14:04:22.300Z,47.38
2019-04-05T14:09:23.848Z,47.39
2019-04-05T14:14:28.224Z,47.58
2019-04-05T14:19:29.059Z,47.83
2019-04-05T14:24:30.681Z,47.92
2019-04-05T14:29:33.794Z,47.76
2019-04-05T14:34:35.681Z,47.72
2019-04-05T14:39:37.457Z,47.99
2019-04-05T14:44:39.117Z,47.99
2019-04-05T14:49:40.757Z,48.09
2019-04-05T14:54:43.308Z,48.09
2019-04-05T14:59:45.597Z,48.48
2019-04-05T15:04:49.429Z,48.89
2019-04-05T15:09:54.780Z,49.29
2019-04-05T15:14:54.404Z,49.40
2019-04-05T15:19:56.044Z,49.79
2019-04-05T15:24:57.607Z,49.63
2019-04-05T15:30:00.410Z,50.08
2019-04-05T15:35:02.696Z,50.09
2019-04-05T15:40:05.965Z,51.40
2019-04-05T15:45:07.779Z,50.45
2019-04-05T15:50:09.551Z,50.37
2019-04-05T15:55:11.303Z,50.39
2019-04-05T16:00:17.588Z,50.64
2019-04-05T16:05:19.445Z,50.87
2019-04-05T16:10:21.086Z,51.20
2019-04-05T16:15:22.747Z,51.07
2019-04-05T16:20:25.502Z,50.99
2019-04-05T16:25:27.416Z,51.03
2019-04-05T16:30:29.068Z,51.12
2019-04-05T16:35:31.348Z,50.66
2019-04-05T16:40:33.024Z,50.36
2019-04-05T16:45:38.589Z,50.51
2019-04-05T16:50:42.290Z,50.64
2019-04-05T16:55:45.301Z,50.68
2019-04-05T17:00:46.975Z,49.96
2019-04-05T17:05:48.541Z,50.32
2019-04-05T17:10:51.330Z,50.41
2019-04-05T17:15:52.869Z,50.33
2019-04-05T17:20:54.403Z,50.47
2019-04-05T17:25:56.143Z,50.65
2019-04-05T17:30:57.816Z,51.55
2019-04-05T17:36:01.751Z,50.96
2019-04-05T17:41:03.715Z,51.60
2019-04-05T17:46:05.472Z,53.15
2019-04-05T17:51:07.009Z,52.20
2019-04-05T17:56:08.951Z,52.53
2019-04-05T18:01:11.195Z,52.60
2019-04-05T18:06:13.615Z,52.87
2019-04-05T18:11:15.250Z,52.99
2019-04-05T18:16:17.989Z,52.89
2019-04-05T18:21:20.740Z,52.94
2019-04-05T18:26:22.543Z,54.56
2019-04-05T18:31:24.841Z,53.06
2019-04-05T18:36:26.900Z,53.31
2019-04-05T18:41:29.718Z,52.84
2019-04-05T18:46:31.665Z,53.02
2019-04-05T18:51:33.985Z,53.13
2019-04-05T18:56:35.547Z,52.57
2019-04-05T19:01:37.441Z,52.74
2019-04-05T19:06:40.712Z,52.72
2019-04-05T19:11:42.700Z,52.61
2019-04-05T19:16:45.088Z,52.46
2019-04-05T19:21:48.311Z,52.51
2019-04-05T19:26:50.174Z,52.50
2019-04-05T19:52:06.289Z,52.60
2019-04-05T19:57:07.816Z,52.52
2019-04-05T20:02:09.545Z,52.48
2019-04-05T20:07:11.208Z,52.36
2019-04-05T20:12:12.875Z,52.26
2019-04-05T20:17:14.780Z,52.22
2019-04-05T20:22:16.459Z,52.17
2019-04-05T20:27:18.225Z,52.21
2019-04-05T20:32:19.773Z,52.14
2019-04-05T20:37:21.408Z,52.08
2019-04-05T20:42:23.153Z,52.10
2019-04-05T20:47:24.936Z,52.12
2019-04-05T20:52:26.764Z,52.23
2019-04-05T20:57:28.426Z,51.71
2019-04-05T21:02:29.991Z,51.43
2019-04-05T21:07:31.549Z,51.28
2019-04-05T21:12:33.244Z,51.21
2019-04-05T21:17:34.813Z,51.53
2019-04-05T21:22:36.456Z,51.30
2019-04-05T21:27:38.199Z,50.47
2019-04-05T21:32:39.872Z,51.44
2019-04-05T21:37:41.645Z,51.04
2019-04-05T21:42:43.318Z,50.62
2019-04-05T21:47:44.984Z,50.51
2019-04-05T21:52:46.759Z,50.40
2019-04-05T21:57:48.736Z,50.24
2019-04-05T22:02:50.632Z,49.99
2019-04-05T22:07:52.387Z,48.13
2019-04-05T22:12:55.196Z,49.89
2019-04-05T22:17:56.861Z,48.38
2019-04-05T22:22:58.736Z,47.68
2019-04-05T22:28:00.517Z,47.95
2019-04-05T22:33:02.315Z,48.17
2019-04-05T22:38:04.090Z,48.24
2019-04-05T22:43:05.831Z,48.29
2019-04-05T22:48:07.603Z,48.50
2019-04-05T22:53:09.380Z,48.64
2019-04-05T22:58:11.255Z,48.70
2019-04-05T23:03:13.025Z,48.92
2019-04-05T23:08:14.798Z,49.10
2019-04-05T23:13:16.571Z,49.05
2019-04-05T23:18:18.345Z,49.23
2019-04-05T23:23:20.120Z,49.38
2019-04-05T23:28:23.019Z,49.56
2019-04-05T23:33:24.792Z,49.67
2019-04-05T23:38:26.563Z,49.77
2019-04-05T23:43:28.350Z,49.82
2019-04-05T23:48:30.315Z,49.96
2019-04-05T23:53:32.089Z,50.01
2019-04-05T23:58:33.866Z,50.13
